Time;durP1;ratioP1;P1;durP2;ratioP2;P2;SDS_P1;SDS_P2;PMS_P1;PMS_P2;Temp;Humidity;BMP_temperature;BMP_pressure;BME280_temperature;BME280_humidity;BME280_pressure;Samples;Min_cycle;Max_cycle;Signal;HPM_P1;HPM_P2
2023/12/11 00:01:45;;;;;;;9.27;3.13;;;5.80;99.90;;;;;;5030233;28;20065;-62
2023/12/11 00:04:11;;;;;;;7.18;3.35;;;5.80;99.90;;;;;;5029306;28;20079;-62
2023/12/11 00:06:37;;;;;;;5.13;2.42;;;5.80;99.90;;;;;;5026361;28;20025;-63
2023/12/11 00:09:02;;;;;;;6.50;2.42;;;5.80;99.90;;;;;;5031392;28;20035;-63
2023/12/11 00:11:28;;;;;;;8.75;2.95;;;5.80;99.90;;;;;;5031378;28;20083;-63
2023/12/11 00:13:54;;;;;;;4.30;2.40;;;5.80;99.90;;;;;;5030761;28;20060;-63
2023/12/11 00:16:19;;;;;;;5.85;2.50;;;5.80;99.90;;;;;;5028276;28;20045;-63
2023/12/11 00:18:45;;;;;;;7.95;2.35;;;5.80;99.90;;;;;;5027155;28;20021;-62
2023/12/11 00:21:11;;;;;;;7.88;2.67;;;5.70;99.90;;;;;;5026080;28;20033;-63
2023/12/11 00:23:37;;;;;;;5.60;2.65;;;5.70;99.90;;;;;;5028613;28;20042;-63
2023/12/11 00:26:03;;;;;;;7.22;2.67;;;5.70;99.90;;;;;;5010710;28;20421;-64
2023/12/11 00:28:29;;;;;;;5.78;2.28;;;5.70;99.90;;;;;;5026011;28;20063;-63
2023/12/11 00:30:54;;;;;;;6.05;2.25;;;5.70;99.90;;;;;;5028289;28;20063;-63
2023/12/11 00:33:20;;;;;;;6.05;2.28;;;5.70;99.90;;;;;;5030798;28;20577;-63
2023/12/11 00:35:46;;;;;;;6.00;2.80;;;5.70;99.90;;;;;;5027845;28;20033;-62
2023/12/11 00:38:12;;;;;;;7.45;2.72;;;5.70;99.90;;;;;;5030290;28;20026;-63
2023/12/11 00:40:37;;;;;;;7.63;2.20;;;5.70;99.90;;;;;;5029518;28;20029;-63
2023/12/11 00:43:03;;;;;;;6.22;2.28;;;5.70;99.90;;;;;;5029398;28;20083;-64
2023/12/11 00:45:29;;;;;;;6.93;2.55;;;5.70;99.90;;;;;;5030011;28;20021;-63
2023/12/11 00:47:55;;;;;;;6.97;2.28;;;5.70;99.90;;;;;;5026949;28;20029;-64
2023/12/11 00:50:20;;;;;;;7.28;2.05;;;5.60;99.90;;;;;;5029897;28;20109;-63
2023/12/11 00:52:46;;;;;;;5.43;2.13;;;5.60;99.90;;;;;;5022393;28;20037;-64
2023/12/11 00:55:11;;;;;;;4.50;1.60;;;5.60;99.90;;;;;;5026578;28;20021;-63
2023/12/11 00:57:37;;;;;;;5.05;1.92;;;5.60;99.90;;;;;;5028455;28;20026;-63
2023/12/11 01:00:03;;;;;;;3.72;1.77;;;5.60;99.90;;;;;;5023382;28;20076;-63
2023/12/11 01:02:29;;;;;;;3.38;1.67;;;5.60;99.90;;;;;;5028389;28;20079;-63
2023/12/11 01:04:54;;;;;;;5.28;1.25;;;5.60;99.90;;;;;;5028019;28;20440;-63
2023/12/11 01:07:20;;;;;;;4.10;1.38;;;5.60;99.90;;;;;;5024765;28;20025;-63
2023/12/11 01:09:45;;;;;;;2.17;1.33;;;5.50;99.90;;;;;;5026758;28;20421;-63
2023/12/11 01:12:11;;;;;;;3.28;1.40;;;5.60;99.90;;;;;;5028409;28;20029;-63
2023/12/11 01:14:37;;;;;;;3.20;1.20;;;5.50;99.90;;;;;;5028737;28;20021;-64
2023/12/11 01:17:03;;;;;;;2.85;1.17;;;5.50;99.90;;;;;;5029142;28;20022;-63
2023/12/11 01:19:29;;;;;;;2.10;1.10;;;5.50;99.90;;;;;;5027815;28;20037;-63
2023/12/11 01:21:54;;;;;;;5.43;1.40;;;5.50;99.90;;;;;;5019610;28;20034;-63
2023/12/11 01:24:20;;;;;;;3.63;1.30;;;5.50;99.90;;;;;;5007472;28;20223;-63
2023/12/11 01:26:45;;;;;;;4.53;1.38;;;5.50;99.90;;;;;;5021402;28;20038;-63
2023/12/11 01:29:11;;;;;;;3.58;1.20;;;5.50;99.90;;;;;;5017260;28;20441;-63
2023/12/11 01:31:37;;;;;;;5.82;1.38;;;5.50;99.90;;;;;;5016405;28;20013;-63
2023/12/11 01:34:02;;;;;;;2.63;1.30;;;5.50;99.90;;;;;;5020221;28;20037;-63
2023/12/11 01:36:28;;;;;;;3.78;1.38;;;5.50;99.90;;;;;;5020064;28;20037;-64
2023/12/11 01:38:53;;;;;;;2.40;1.33;;;5.50;99.90;;;;;;5022113;28;20017;-63
2023/12/11 01:41:19;;;;;;;1.15;1.05;;;5.50;99.90;;;;;;5019371;28;20044;-63
2023/12/11 01:43:57;;;;;;;5.25;1.40;;;5.50;99.90;;;;;;5022344;28;20522;-63
2023/12/11 01:46:24;;;;;;;3.95;1.05;;;5.50;99.90;;;;;;5020907;28;20148;-63
2023/12/11 01:48:52;;;;;;;3.05;1.33;;;5.50;99.90;;;;;;5002634;28;20034;-63
2023/12/11 01:51:18;;;;;;;1.95;1.10;;;5.50;99.90;;;;;;5005069;28;20033;-63
2023/12/11 01:53:47;;;;;;;2.22;1.42;;;5.50;99.90;;;;;;5021188;28;20501;-62
2023/12/11 01:56:13;;;;;;;6.35;1.95;;;5.50;99.90;;;;;;5004938;28;20409;-63
2023/12/11 01:58:39;;;;;;;4.18;1.63;;;5.50;99.90;;;;;;5023463;28;20025;-63
2023/12/11 02:01:07;;;;;;;3.92;2.00;;;5.50;99.90;;;;;;5019474;28;20057;-63
2023/12/11 02:03:33;;;;;;;5.60;1.85;;;5.50;99.90;;;;;;5025566;28;20040;-63
2023/12/11 02:05:58;;;;;;;5.35;1.65;;;5.50;99.90;;;;;;5007145;28;20037;-63
2023/12/11 02:08:24;;;;;;;2.45;1.77;;;5.50;99.90;;;;;;5024249;28;20106;-64
2023/12/11 02:10:50;;;;;;;3.45;1.63;;;5.50;99.90;;;;;;5018301;28;20513;-63
2023/12/11 02:13:15;;;;;;;5.00;1.92;;;5.50;99.90;;;;;;4990067;28;20236;-63
2023/12/11 02:15:46;;;;;;;4.32;2.08;;;5.50;99.90;;;;;;5021089;28;20034;-62
2023/12/11 02:18:19;;;;;;;3.92;1.80;;;5.50;99.90;;;;;;5007744;28;20026;-62
2023/12/11 02:20:45;;;;;;;5.65;2.10;;;5.50;99.90;;;;;;5016035;28;20032;-63
2023/12/11 02:23:22;;;;;;;3.33;2.00;;;5.60;99.90;;;;;;5022272;28;20171;-63
2023/12/11 02:25:59;;;;;;;7.43;2.92;;;5.60;99.90;;;;;;5015096;28;20033;-63
2023/12/11 02:28:25;;;;;;;7.93;2.80;;;5.60;99.90;;;;;;5027622;28;20031;-63
2023/12/11 02:30:50;;;;;;;7.63;3.20;;;5.60;99.90;;;;;;5022610;28;20406;-63
2023/12/11 02:33:16;;;;;;;5.57;2.97;;;5.60;99.90;;;;;;5026869;28;20029;-63
2023/12/11 02:35:43;;;;;;;5.90;3.28;;;5.60;99.90;;;;;;5024602;28;20024;-62
2023/12/11 02:38:09;;;;;;;3.90;2.88;;;5.70;99.90;;;;;;5026730;28;20049;-63
2023/12/11 02:40:35;;;;;;;6.78;3.50;;;5.70;99.90;;;;;;5024868;28;20139;-63
2023/12/11 02:43:00;;;;;;;6.35;3.35;;;5.70;99.90;;;;;;5025257;28;20478;-62
2023/12/11 02:45:26;;;;;;;7.53;4.00;;;5.80;99.90;;;;;;5029035;28;20725;-63
2023/12/11 02:47:52;;;;;;;9.10;4.07;;;5.80;99.90;;;;;;5024438;28;20030;-62
2023/12/11 02:50:17;;;;;;;8.02;4.35;;;5.90;99.90;;;;;;5025927;28;20488;-63
2023/12/11 02:52:43;;;;;;;5.80;4.22;;;5.90;99.90;;;;;;5020937;28;20082;-63
2023/12/11 02:55:08;;;;;;;8.13;5.15;;;5.90;99.90;;;;;;5023528;28;20021;-63
2023/12/11 02:57:34;;;;;;;8.57;5.20;;;6.00;99.90;;;;;;5024094;28;20523;-61
2023/12/11 02:59:59;;;;;;;9.15;5.45;;;6.10;99.90;;;;;;5022305;28;20021;-62
2023/12/11 03:02:25;;;;;;;7.35;5.32;;;6.20;99.90;;;;;;5019368;28;20517;-63
2023/12/11 03:04:51;;;;;;;7.38;4.93;;;6.20;99.90;;;;;;5019563;28;20033;-63
2023/12/11 03:07:16;;;;;;;10.15;5.22;;;6.30;99.90;;;;;;5025991;28;20021;-63
2023/12/11 03:09:42;;;;;;;12.10;5.85;;;6.30;99.90;;;;;;5021576;28;20209;-63
2023/12/11 03:12:07;;;;;;;11.10;6.50;;;6.20;99.90;;;;;;5022741;28;20524;-63
2023/12/11 03:14:33;;;;;;;11.50;5.70;;;6.30;99.90;;;;;;5022648;28;20076;-62
2023/12/11 03:16:58;;;;;;;9.88;6.20;;;6.40;99.90;;;;;;5025018;28;20041;-63
2023/12/11 03:19:24;;;;;;;9.18;5.53;;;6.40;99.90;;;;;;5025674;28;20520;-62
2023/12/11 03:21:50;;;;;;;7.85;5.32;;;6.50;99.90;;;;;;5023714;28;20109;-63
2023/12/11 03:24:16;;;;;;;9.13;5.00;;;6.40;99.90;;;;;;5008798;28;20029;-62
2023/12/11 03:26:41;;;;;;;10.52;5.32;;;6.50;99.90;;;;;;5018962;28;20030;-63
2023/12/11 03:29:07;;;;;;;15.57;6.35;;;6.50;99.90;;;;;;5024196;28;20025;-63
2023/12/11 03:31:32;;;;;;;10.88;5.55;;;6.50;99.90;;;;;;5025872;28;20026;-63
2023/12/11 03:33:58;;;;;;;9.18;5.93;;;6.50;99.90;;;;;;5021640;28;20018;-63
2023/12/11 03:36:23;;;;;;;10.10;5.63;;;6.50;99.90;;;;;;5026328;28;20026;-62
2023/12/11 03:38:49;;;;;;;12.60;5.85;;;6.50;99.90;;;;;;5028930;28;20541;-62
2023/12/11 03:41:14;;;;;;;10.45;5.65;;;6.50;99.90;;;;;;5023415;28;20124;-62
2023/12/11 03:43:40;;;;;;;9.95;5.78;;;6.60;99.90;;;;;;5018995;28;20030;-63
2023/12/11 03:46:05;;;;;;;9.40;5.28;;;6.60;99.90;;;;;;5021793;28;20036;-62
2023/12/11 03:48:31;;;;;;;10.68;4.82;;;6.60;99.90;;;;;;5021620;28;20104;-62
2023/12/11 03:50:56;;;;;;;9.25;5.22;;;6.60;99.90;;;;;;5024438;28;20025;-62
2023/12/11 03:53:22;;;;;;;14.32;5.63;;;6.60;99.90;;;;;;5025402;28;20048;-62
2023/12/11 03:55:48;;;;;;;15.00;5.28;;;6.60;99.90;;;;;;5009473;28;20056;-63
2023/12/11 03:58:14;;;;;;;11.35;5.40;;;6.60;99.90;;;;;;5023847;28;20017;-62
2023/12/11 04:00:39;;;;;;;11.98;5.13;;;6.60;99.90;;;;;;5021720;28;20018;-62
2023/12/11 04:03:05;;;;;;;9.50;4.15;;;6.70;99.90;;;;;;5022751;28;20029;-62
2023/12/11 04:05:30;;;;;;;11.27;4.93;;;6.70;99.90;;;;;;5018272;28;20027;-63
2023/12/11 04:07:56;;;;;;;9.73;3.88;;;6.70;99.90;;;;;;5022856;28;20032;-63
2023/12/11 04:10:22;;;;;;;9.50;3.58;;;6.80;99.90;;;;;;5023962;28;20109;-62
2023/12/11 04:12:47;;;;;;;9.10;4.05;;;6.80;99.90;;;;;;5023230;28;20112;-62
2023/12/11 04:15:13;;;;;;;11.73;3.15;;;6.80;99.90;;;;;;5019100;28;20025;-62
2023/12/11 04:17:41;;;;;;;9.73;3.80;;;6.80;99.90;;;;;;5010469;28;20021;-62
2023/12/11 04:20:07;;;;;;;13.73;3.90;;;6.80;99.90;;;;;;5007073;28;20043;-62
2023/12/11 04:22:32;;;;;;;9.77;3.42;;;6.80;99.90;;;;;;5008690;28;20071;-63
2023/12/11 04:24:58;;;;;;;11.57;3.15;;;7.00;99.90;;;;;;5024724;28;20046;-62
2023/12/11 04:27:23;;;;;;;10.52;2.83;;;7.00;99.90;;;;;;5040328;28;20052;-63
2023/12/11 04:29:49;;;;;;;14.52;3.40;;;7.00;99.90;;;;;;5033315;28;20038;-63
2023/12/11 04:32:15;;;;;;;10.18;3.15;;;7.00;99.90;;;;;;5028258;28;20024;-63
2023/12/11 04:34:40;;;;;;;13.02;3.60;;;7.00;99.90;;;;;;5033234;28;20022;-63
2023/12/11 04:37:06;;;;;;;11.73;3.38;;;7.00;99.90;;;;;;5031395;28;20025;-62
2023/12/11 04:39:31;;;;;;;8.20;2.85;;;7.00;99.90;;;;;;5028254;28;20701;-63
2023/12/11 04:41:57;;;;;;;12.48;3.50;;;7.00;99.90;;;;;;5024667;28;20025;-63
2023/12/11 04:44:22;;;;;;;14.07;3.45;;;7.00;99.90;;;;;;5011640;28;20053;-63
2023/12/11 04:46:48;;;;;;;18.38;3.22;;;7.00;99.90;;;;;;5024760;28;20641;-63
2023/12/11 04:49:13;;;;;;;13.73;2.63;;;7.10;99.90;;;;;;5028565;28;20505;-62
2023/12/11 04:51:39;;;;;;;11.48;2.63;;;7.10;99.90;;;;;;5028496;28;20053;-63
2023/12/11 04:54:05;;;;;;;17.13;3.20;;;7.10;99.90;;;;;;5028471;28;20030;-63
2023/12/11 04:56:30;;;;;;;9.80;3.15;;;7.10;99.90;;;;;;5024800;28;20032;-63
2023/12/11 04:58:56;;;;;;;10.73;2.83;;;7.10;99.90;;;;;;5023270;28;20024;-63
2023/12/11 05:01:25;;;;;;;13.45;2.60;;;7.10;99.90;;;;;;5026227;28;20092;-63
2023/12/11 05:03:51;;;;;;;8.38;2.78;;;7.10;99.90;;;;;;5032542;28;20025;-63
2023/12/11 05:06:16;;;;;;;14.55;3.13;;;7.10;99.90;;;;;;5030041;28;20071;-63
2023/12/11 05:08:42;;;;;;;7.68;2.97;;;7.10;99.90;;;;;;5030034;28;20037;-62
2023/12/11 05:11:07;;;;;;;11.75;3.88;;;7.10;99.90;;;;;;5028007;28;20088;-63
2023/12/11 05:13:33;;;;;;;16.08;3.70;;;7.20;99.90;;;;;;5026253;28;20544;-63
2023/12/11 05:15:58;;;;;;;9.02;2.75;;;7.20;99.90;;;;;;5027201;28;20029;-63
2023/12/11 05:18:24;;;;;;;10.88;3.03;;;7.20;99.90;;;;;;5025522;28;20053;-63
2023/12/11 05:20:50;;;;;;;12.52;3.28;;;7.20;99.90;;;;;;5027604;28;20136;-63
2023/12/11 05:23:15;;;;;;;14.27;2.85;;;7.20;99.90;;;;;;5023235;28;20092;-62
2023/12/11 05:25:41;;;;;;;21.00;3.72;;;7.20;99.90;;;;;;5026086;28;20025;-63
2023/12/11 05:28:06;;;;;;;11.00;3.67;;;7.20;99.90;;;;;;5032500;28;20036;-63
2023/12/11 05:30:32;;;;;;;11.68;2.70;;;7.20;99.90;;;;;;5026536;28;20032;-63
2023/12/11 05:32:59;;;;;;;9.07;2.75;;;7.20;99.90;;;;;;5032566;28;20071;-63
2023/12/11 05:35:25;;;;;;;16.00;3.53;;;7.20;99.90;;;;;;5010187;28;20026;-63
2023/12/11 05:37:51;;;;;;;12.73;3.00;;;7.20;99.90;;;;;;5031055;28;20040;-63
2023/12/11 05:40:16;;;;;;;10.38;2.95;;;7.20;99.90;;;;;;5027482;28;20029;-63
2023/12/11 05:42:42;;;;;;;7.97;2.83;;;7.20;99.90;;;;;;5023095;28;20044;-64
2023/12/11 05:45:09;;;;;;;14.02;2.72;;;7.20;99.90;;;;;;5032393;28;20030;-64
2023/12/11 05:47:35;;;;;;;3.63;2.30;;;7.20;99.90;;;;;;5006503;28;20041;-63
2023/12/11 05:50:01;;;;;;;7.95;2.45;;;7.20;99.90;;;;;;5008510;28;20029;-64
2023/12/11 05:52:27;;;;;;;9.77;2.35;;;7.20;99.90;;;;;;5010503;28;20068;-64
2023/12/11 05:54:52;;;;;;;9.52;2.53;;;7.20;99.90;;;;;;5025631;28;20028;-63
2023/12/11 05:57:18;;;;;;;8.00;3.03;;;7.20;99.90;;;;;;5024069;28;20112;-63
2023/12/11 05:59:43;;;;;;;16.13;3.25;;;7.20;99.90;;;;;;5030624;28;20022;-62
2023/12/11 06:02:09;;;;;;;14.20;3.00;;;7.10;99.90;;;;;;5011339;28;20122;-63
2023/12/11 06:04:36;;;;;;;7.50;3.65;;;7.10;99.90;;;;;;5026036;28;20227;-62
2023/12/11 06:07:02;;;;;;;13.55;2.63;;;7.10;99.90;;;;;;5007375;28;20065;-62
2023/12/11 06:09:28;;;;;;;17.63;4.18;;;7.10;99.90;;;;;;5029294;28;20596;-63
2023/12/11 06:11:53;;;;;;;14.10;3.50;;;7.10;99.90;;;;;;5026463;28;20026;-63
2023/12/11 06:14:19;;;;;;;17.67;3.25;;;7.10;99.90;;;;;;5033357;28;20116;-62
2023/12/11 06:16:44;;;;;;;12.00;3.38;;;7.10;99.90;;;;;;5027076;28;20025;-63
2023/12/11 06:19:10;;;;;;;15.70;4.07;;;7.10;99.90;;;;;;5024483;28;20493;-62
2023/12/11 06:21:36;;;;;;;20.67;4.88;;;7.20;99.90;;;;;;5023377;28;20048;-63
2023/12/11 06:24:01;;;;;;;13.77;5.60;;;7.20;99.90;;;;;;5028809;28;20022;-63
2023/12/11 06:26:32;;;;;;;17.55;5.63;;;7.20;99.90;;;;;;5031661;28;20044;-63
2023/12/11 06:28:59;;;;;;;16.65;5.43;;;7.20;99.90;;;;;;5021463;28;20025;-63
2023/12/11 06:31:25;;;;;;;10.40;5.05;;;7.20;99.90;;;;;;5023715;28;20427;-63
2023/12/11 06:33:51;;;;;;;20.35;5.85;;;7.20;99.90;;;;;;5003499;28;20088;-62
2023/12/11 06:36:16;;;;;;;24.70;6.65;;;7.20;99.90;;;;;;5026778;28;20021;-63
2023/12/11 06:38:43;;;;;;;24.02;6.80;;;7.20;99.90;;;;;;5022850;28;20049;-64
2023/12/11 06:41:08;;;;;;;25.42;7.95;;;7.20;99.90;;;;;;5005189;28;20029;-64
2023/12/11 06:43:35;;;;;;;17.58;6.07;;;7.20;99.90;;;;;;5022925;28;20037;-64
2023/12/11 06:46:01;;;;;;;18.45;6.20;;;7.20;99.90;;;;;;5025825;28;20025;-64
2023/12/11 06:48:27;;;;;;;19.55;4.95;;;7.20;99.90;;;;;;5022692;28;20025;-63
2023/12/11 06:50:53;;;;;;;15.13;4.72;;;7.20;99.90;;;;;;5018341;28;20037;-64
2023/12/11 06:53:22;;;;;;;19.58;4.93;;;7.20;99.90;;;;;;5009600;28;20033;-63
2023/12/11 06:55:47;;;;;;;21.83;5.03;;;7.20;99.90;;;;;;5022780;28;20029;-64
2023/12/11 06:58:13;;;;;;;21.48;4.93;;;7.20;99.90;;;;;;5024654;28;20064;-63
2023/12/11 07:00:39;;;;;;;14.27;4.07;;;7.20;99.90;;;;;;5028203;28;20056;-63
2023/12/11 07:03:05;;;;;;;12.18;4.30;;;7.20;99.90;;;;;;5019119;28;20078;-63
2023/12/11 07:05:31;;;;;;;15.90;5.18;;;7.20;99.90;;;;;;5021593;28;20029;-62
2023/12/11 07:07:57;;;;;;;14.85;4.53;;;7.20;99.90;;;;;;5019784;28;20573;-63
2023/12/11 07:10:23;;;;;;;14.82;4.68;;;7.20;99.90;;;;;;5023298;28;20037;-64
2023/12/11 07:12:49;;;;;;;10.48;4.43;;;7.20;99.90;;;;;;5018232;28;20086;-63
2023/12/11 07:15:15;;;;;;;10.63;4.20;;;7.20;99.90;;;;;;5004044;28;20026;-63
2023/12/11 07:17:40;;;;;;;18.92;5.15;;;7.20;99.90;;;;;;5020141;28;20028;-63
2023/12/11 07:20:07;;;;;;;11.05;4.13;;;7.20;99.90;;;;;;5023195;28;20033;-64
2023/12/11 07:22:34;;;;;;;6.25;3.53;;;7.20;99.90;;;;;;5021921;28;20029;-64
2023/12/11 07:25:00;;;;;;;12.65;3.85;;;7.20;99.90;;;;;;5028412;28;20040;-64
2023/12/11 07:27:26;;;;;;;13.38;4.82;;;7.20;99.90;;;;;;5023559;28;20041;-65
2023/12/11 07:29:51;;;;;;;16.70;4.35;;;7.20;99.90;;;;;;5017839;28;20058;-63
2023/12/11 07:32:18;;;;;;;9.88;2.97;;;7.20;99.90;;;;;;5020908;28;20038;-63
2023/12/11 07:34:43;;;;;;;10.45;3.78;;;7.20;99.90;;;;;;5002693;28;20508;-63
2023/12/11 07:37:09;;;;;;;13.65;4.07;;;7.20;99.90;;;;;;5022468;28;20026;-64
2023/12/11 07:39:35;;;;;;;9.27;3.38;;;7.20;99.90;;;;;;5021453;28;20043;-63
2023/12/11 07:42:00;;;;;;;13.07;3.45;;;7.20;99.90;;;;;;5022551;28;20108;-65
2023/12/11 07:44:26;;;;;;;5.10;2.45;;;7.20;99.90;;;;;;5023401;28;20034;-66
2023/12/11 07:46:52;;;;;;;12.90;3.03;;;7.20;99.90;;;;;;5019987;28;20102;-63
2023/12/11 07:49:18;;;;;;;6.25;2.80;;;7.20;99.90;;;;;;5007458;28;20037;-64
2023/12/11 07:51:43;;;;;;;9.95;2.22;;;7.20;99.90;;;;;;5022954;28;20109;-64
2023/12/11 07:54:09;;;;;;;6.70;2.55;;;7.20;99.90;;;;;;5024249;28;20025;-63
2023/12/11 07:56:37;;;;;;;8.88;2.60;;;7.20;99.90;;;;;;5026049;28;20119;-64
2023/12/11 07:59:03;;;;;;;4.53;2.53;;;7.10;99.90;;;;;;5028144;28;20137;-63
2023/12/11 08:01:32;;;;;;;15.30;4.10;;;7.20;99.90;;;;;;4967569;28;20156;-64
2023/12/11 08:03:58;;;;;;;11.73;3.45;;;7.20;99.90;;;;;;4985085;28;20550;-64
2023/12/11 08:06:24;;;;;;;9.98;3.42;;;7.20;99.90;;;;;;4948694;28;20089;-64
2023/12/11 08:08:49;;;;;;;7.05;2.63;;;7.20;99.90;;;;;;4945487;28;20064;-64
2023/12/11 08:11:21;;;;;;;5.07;2.38;;;7.20;99.90;;;;;;4942474;28;20105;-64
2023/12/11 08:13:47;;;;;;;6.45;2.50;;;7.20;99.90;;;;;;4971759;28;20055;-65
2023/12/11 08:16:14;;;;;;;4.55;2.30;;;7.20;99.90;;;;;;4961011;28;20722;-64
2023/12/11 08:18:41;;;;;;;10.68;3.92;;;7.20;99.90;;;;;;4988802;28;20525;-65
2023/12/11 08:21:07;;;;;;;7.82;2.63;;;7.30;99.90;;;;;;4986722;28;20033;-64
2023/12/11 08:23:32;;;;;;;4.18;2.10;;;7.20;99.90;;;;;;4999327;28;20036;-64
2023/12/11 08:25:59;;;;;;;5.53;2.35;;;7.30;99.90;;;;;;4995562;28;20077;-64
2023/12/11 08:28:24;;;;;;;6.18;3.33;;;7.30;99.90;;;;;;5010994;28;20493;-64
2023/12/11 08:30:50;;;;;;;8.98;3.15;;;7.30;99.90;;;;;;4997584;28;20022;-64
2023/12/11 08:33:16;;;;;;;6.03;2.97;;;7.30;99.90;;;;;;5003662;28;20440;-64
2023/12/11 08:35:41;;;;;;;9.32;3.03;;;7.30;99.90;;;;;;5004729;28;20025;-64
2023/12/11 08:38:07;;;;;;;8.75;3.28;;;7.30;99.90;;;;;;4997892;28;20033;-64
2023/12/11 08:40:33;;;;;;;7.57;3.40;;;7.30;99.90;;;;;;5006627;28;20036;-64
2023/12/11 08:42:58;;;;;;;8.05;3.17;;;7.30;99.90;;;;;;5016735;28;20042;-63
2023/12/11 08:45:24;;;;;;;3.75;2.72;;;7.30;99.90;;;;;;5003963;28;20565;-63
2023/12/11 08:47:50;;;;;;;12.15;3.20;;;7.30;99.90;;;;;;4999694;28;20039;-63
2023/12/11 08:50:16;;;;;;;4.07;2.80;;;7.30;99.90;;;;;;4998603;28;20090;-63
2023/12/11 08:52:43;;;;;;;9.15;2.90;;;7.40;99.90;;;;;;4999255;28;20026;-64
2023/12/11 08:55:09;;;;;;;7.60;3.55;;;7.40;99.90;;;;;;4997267;28;20495;-65
2023/12/11 08:57:35;;;;;;;6.65;2.60;;;7.40;99.90;;;;;;4995090;28;20116;-64
2023/12/11 09:00:01;;;;;;;9.90;3.97;;;7.40;99.90;;;;;;4985208;28;20055;-64
2023/12/11 09:02:26;;;;;;;8.57;3.63;;;7.40;99.90;;;;;;5000159;28;20040;-64
2023/12/11 09:04:52;;;;;;;10.85;3.42;;;7.40;99.90;;;;;;4978010;28;20509;-65
2023/12/11 09:07:17;;;;;;;7.82;3.20;;;7.40;99.90;;;;;;5013486;28;20111;-63
2023/12/11 09:09:43;;;;;;;5.85;2.95;;;7.40;99.90;;;;;;5006791;28;20033;-64
2023/12/11 09:12:08;;;;;;;6.25;3.10;;;7.50;99.90;;;;;;5003266;28;20047;-64
2023/12/11 09:14:34;;;;;;;9.80;4.75;;;7.50;99.90;;;;;;4986648;28;20516;-63
2023/12/11 09:17:00;;;;;;;11.15;5.72;;;7.50;99.90;;;;;;4997463;28;20039;-63
2023/12/11 09:19:28;;;;;;;8.00;4.97;;;7.50;99.90;;;;;;5017464;28;22457;-63
2023/12/11 09:21:53;;;;;;;6.25;3.90;;;7.50;99.90;;;;;;4991989;28;20029;-63
2023/12/11 09:24:19;;;;;;;13.30;6.93;;;7.50;99.90;;;;;;4996484;28;20062;-63
2023/12/11 09:26:47;;;;;;;12.52;6.03;;;7.50;99.90;;;;;;4993946;28;20047;-64
2023/12/11 09:29:13;;;;;;;18.33;7.18;;;7.60;99.90;;;;;;4994610;28;20164;-63
2023/12/11 09:31:39;;;;;;;18.02;7.93;;;7.60;99.90;;;;;;4984273;28;20124;-63
2023/12/11 09:34:04;;;;;;;13.98;5.25;;;7.70;99.90;;;;;;5000550;28;20037;-64
2023/12/11 09:36:30;;;;;;;16.05;8.98;;;7.70;99.90;;;;;;5009892;28;20549;-64
2023/12/11 09:38:56;;;;;;;14.82;8.80;;;7.70;99.90;;;;;;4996124;28;20025;-63
2023/12/11 09:41:22;;;;;;;13.40;7.25;;;7.70;99.90;;;;;;4999814;28;20025;-63
2023/12/11 09:43:48;;;;;;;13.20;7.35;;;7.70;99.90;;;;;;5006774;28;20082;-63
2023/12/11 09:46:17;;;;;;;9.18;5.55;;;7.70;99.90;;;;;;5004078;28;20040;-63
2023/12/11 09:48:44;;;;;;;9.90;5.53;;;7.70;99.90;;;;;;5018579;28;20538;-63
2023/12/11 09:51:13;;;;;;;15.38;6.15;;;7.70;99.90;;;;;;4997118;28;20044;-63
2023/12/11 09:53:38;;;;;;;12.27;5.40;;;7.70;99.90;;;;;;4980048;28;20679;-62
2023/12/11 09:56:04;;;;;;;11.90;5.40;;;7.70;99.90;;;;;;4994820;28;20029;-63
2023/12/11 09:58:32;;;;;;;6.88;4.00;;;7.70;99.90;;;;;;5015052;28;20521;-63
2023/12/11 10:01:00;;;;;;;19.23;4.93;;;7.70;99.90;;;;;;5012186;28;20108;-63
2023/12/11 10:03:29;;;;;;;16.42;4.43;;;7.80;99.90;;;;;;4978683;28;20125;-62
2023/12/11 10:05:59;;;;;;;11.00;4.43;;;7.80;99.90;;;;;;4977893;28;20029;-62
2023/12/11 10:08:25;;;;;;;12.93;3.45;;;7.80;99.90;;;;;;4999727;28;20437;-63
2023/12/11 10:11:11;;;;;;;12.85;4.20;;;7.90;99.90;;;;;;5011467;28;20101;-62
2023/12/11 10:13:38;;;;;;;14.40;4.35;;;7.90;99.90;;;;;;5029622;28;20024;-63
2023/12/11 10:16:05;;;;;;;9.93;4.68;;;8.00;99.90;;;;;;5034817;28;20025;-62
2023/12/11 10:18:31;;;;;;;9.32;3.95;;;8.00;99.90;;;;;;5034228;28;20021;-62
2023/12/11 10:21:02;;;;;;;15.23;5.07;;;8.10;99.90;;;;;;5014195;28;20030;-62
2023/12/11 10:23:27;;;;;;;7.00;4.35;;;8.10;99.90;;;;;;5035541;28;20052;-61
2023/12/11 10:26:04;;;;;;;27.52;6.47;;;8.20;99.90;;;;;;5032009;28;20061;-63
2023/12/11 10:28:30;;;;;;;11.55;4.28;;;8.20;99.90;;;;;;5037037;28;20037;-62
2023/12/11 10:30:59;;;;;;;18.70;5.80;;;8.20;99.90;;;;;;5025301;28;20022;-62
2023/12/11 10:33:26;;;;;;;14.20;5.30;;;8.30;99.90;;;;;;5036369;28;20052;-63
2023/12/11 10:36:06;;;;;;;18.20;5.43;;;8.30;99.90;;;;;;5034059;28;20052;-62
2023/12/11 10:38:32;;;;;;;23.20;5.30;;;8.30;99.90;;;;;;5038582;28;20021;-62
2023/12/11 10:41:00;;;;;;;19.10;6.38;;;8.30;99.90;;;;;;5031520;28;20033;-62
2023/12/11 10:43:26;;;;;;;12.23;4.85;;;8.40;99.90;;;;;;5031753;28;20052;-63
2023/12/11 10:45:53;;;;;;;18.65;5.80;;;8.40;99.90;;;;;;5014528;28;20080;-62
2023/12/11 10:48:20;;;;;;;17.77;5.28;;;8.40;99.90;;;;;;5029150;28;20040;-62
2023/12/11 10:50:47;;;;;;;7.32;4.22;;;8.50;99.90;;;;;;5032672;28;20452;-62
2023/12/11 10:53:15;;;;;;;14.00;4.72;;;8.50;99.90;;;;;;5037410;28;20469;-62
2023/12/11 10:55:40;;;;;;;12.25;4.45;;;8.50;99.90;;;;;;5030074;28;20533;-62
2023/12/11 10:58:08;;;;;;;16.10;4.30;;;8.50;99.90;;;;;;5016194;28;20063;-62
2023/12/11 11:00:34;;;;;;;13.80;5.00;;;8.50;99.90;;;;;;5031511;28;20091;-62
2023/12/11 11:03:02;;;;;;;18.00;4.93;;;8.50;99.90;;;;;;4995841;28;20022;-62
2023/12/11 11:05:28;;;;;;;12.57;4.05;;;8.50;99.90;;;;;;5032038;28;20026;-62
2023/12/11 11:08:08;;;;;;;6.85;3.95;;;8.40;99.90;;;;;;5016688;28;20087;-62
2023/12/11 11:10:42;;;;;;;14.38;3.78;;;8.40;99.90;;;;;;5031727;28;20405;-61
2023/12/11 11:13:19;;;;;;;15.30;4.53;;;8.40;99.90;;;;;;5015663;28;20044;-62
2023/12/11 11:15:51;;;;;;;21.00;3.90;;;8.50;99.90;;;;;;5019816;28;20402;-62
2023/12/11 11:18:16;;;;;;;12.90;3.53;;;8.50;99.90;;;;;;5032904;28;20029;-62
2023/12/11 11:21:03;;;;;;;14.40;4.85;;;8.50;99.90;;;;;;5030199;28;20021;-62
2023/12/11 11:23:32;;;;;;;12.88;3.38;;;8.50;99.90;;;;;;5031254;28;20021;-61
2023/12/11 11:25:57;;;;;;;11.18;4.55;;;8.60;99.90;;;;;;5035046;28;20144;-62
2023/12/11 11:28:44;;;;;;;12.25;3.25;;;8.60;99.90;;;;;;5033963;28;20116;-62
2023/12/11 11:31:11;;;;;;;17.30;3.97;;;8.70;99.90;;;;;;5014716;28;20038;-62
2023/12/11 11:33:46;;;;;;;11.45;3.45;;;8.70;99.90;;;;;;5039680;28;20033;-62
2023/12/11 11:36:12;;;;;;;11.38;3.95;;;8.70;99.90;;;;;;5038605;28;20463;-62
2023/12/11 11:39:05;;;;;;;10.20;3.22;;;8.70;99.90;;;;;;5038173;28;20025;-62
2023/12/11 11:41:32;;;;;;;16.48;3.92;;;8.80;99.90;;;;;;5039709;28;20035;-62
2023/12/11 11:44:06;;;;;;;11.85;3.40;;;8.70;99.90;;;;;;5035027;28;20075;-61
2023/12/11 11:46:49;;;;;;;18.35;4.15;;;8.80;99.90;;;;;;5018673;28;20029;-60
2023/12/11 11:49:33;;;;;;;14.32;3.85;;;8.80;99.90;;;;;;5036668;28;20067;-62
2023/12/11 11:52:02;;;;;;;11.75;4.22;;;8.80;99.90;;;;;;5036018;28;20079;-60
2023/12/11 11:54:32;;;;;;;22.50;4.07;;;8.80;99.90;;;;;;5018422;28;20021;-61
2023/12/11 11:56:58;;;;;;;13.50;3.85;;;8.70;99.90;;;;;;5033941;28;20022;-61
2023/12/11 11:59:24;;;;;;;15.15;3.75;;;8.70;99.90;;;;;;5043026;28;20013;-62
2023/12/11 12:01:54;;;;;;;13.30;3.45;;;8.70;99.90;;;;;;5036444;28;20486;-62
2023/12/11 12:04:34;;;;;;;14.75;3.90;;;8.70;99.90;;;;;;5036428;28;20029;-62
2023/12/11 12:07:04;;;;;;;11.98;3.17;;;8.70;99.90;;;;;;5036804;28;20025;-61
2023/12/11 12:09:31;;;;;;;10.02;2.70;;;8.70;99.90;;;;;;5019813;28;20034;-61
2023/12/11 12:12:00;;;;;;;11.75;4.43;;;8.70;99.90;;;;;;5036278;28;20039;-62
2023/12/11 12:14:27;;;;;;;14.68;4.43;;;8.70;99.90;;;;;;5034900;28;20043;-61
2023/12/11 12:16:53;;;;;;;12.88;4.03;;;8.70;99.90;;;;;;5020195;28;20029;-61
2023/12/11 12:19:32;;;;;;;19.13;4.65;;;8.70;99.90;;;;;;5036046;28;20026;-61
2023/12/11 12:21:58;;;;;;;23.83;6.35;;;8.70;99.90;;;;;;5034648;28;20022;-60
2023/12/11 12:24:25;;;;;;;48.40;20.70;;;8.70;99.90;;;;;;5038559;28;20055;-61
2023/12/11 12:26:54;;;;;;;92.93;44.97;;;8.70;99.90;;;;;;5034434;28;20398;-60
2023/12/11 12:29:20;;;;;;;82.13;40.47;;;8.70;99.90;;;;;;5035428;28;20653;-61
2023/12/11 12:31:46;;;;;;;43.47;22.73;;;8.80;99.90;;;;;;5035318;28;20052;-60
2023/12/11 12:34:13;;;;;;;49.20;23.75;;;8.80;99.90;;;;;;5034785;28;20100;-61
2023/12/11 12:36:40;;;;;;;25.33;8.30;;;8.80;99.90;;;;;;5022830;28;20508;-61
2023/12/11 12:39:06;;;;;;;11.52;6.00;;;8.80;99.90;;;;;;5038501;28;20415;-60
2023/12/11 12:41:32;;;;;;;13.10;7.25;;;8.80;99.90;;;;;;5021925;28;20048;-61
2023/12/11 12:44:02;;;;;;;12.00;6.57;;;8.80;99.90;;;;;;5037265;28;20389;-60
2023/12/11 12:46:37;;;;;;;15.55;8.38;;;8.80;99.90;;;;;;5037405;28;20056;-61
2023/12/11 12:49:10;;;;;;;13.52;7.57;;;8.90;99.90;;;;;;5020164;28;20084;-61